Time;durP1;ratioP1;P1;durP2;ratioP2;P2;SDS_P1;SDS_P2;PMS_P1;PMS_P2;Temp;Humidity;BMP_temperature;BMP_pressure;BME280_temperature;BME280_humidity;BME280_pressure;Samples;Min_cycle;Max_cycle;Signal;HPM_P1;HPM_P2
2022/07/15 00:02:24;;;;;;;10.03;3.80;;;;;;;22.43;61.54;98625.09;1699592;84;21462;-69
2022/07/15 00:04:51;;;;;;;5.75;3.45;;;;;;;22.38;61.91;98618.31;1695899;84;21494;-69
2022/07/15 00:07:20;;;;;;;5.70;3.65;;;;;;;22.30;62.23;98628.30;1665714;84;22134;-69
2022/07/15 00:12:33;;;;;;;3.90;3.42;;;;;;;22.14;63.00;98620.13;1665364;84;20971;-68
2022/07/15 00:15:00;;;;;;;5.42;3.42;;;;;;;22.08;63.33;98615.77;1663101;84;21005;-68
2022/07/15 00:17:27;;;;;;;4.87;3.15;;;;;;;22.04;63.69;98606.55;1662359;84;20990;-68
2022/07/15 00:19:54;;;;;;;4.45;3.20;;;;;;;22.00;63.95;98610.86;1664583;84;21898;-68
2022/07/15 00:22:21;;;;;;;9.78;4.70;;;;;;;21.94;64.21;98607.88;1664673;84;21507;-68
2022/07/15 00:24:48;;;;;;;7.75;3.42;;;;;;;21.86;64.59;98596.19;1665230;84;20943;-68
2022/07/15 00:27:15;;;;;;;3.55;3.25;;;;;;;21.80;64.90;98593.67;1664707;84;21468;-68
2022/07/15 00:29:42;;;;;;;4.53;3.47;;;;;;;21.75;65.18;98590.95;1665026;84;21453;-68
2022/07/15 00:32:08;;;;;;;7.37;3.17;;;;;;;21.70;65.40;98593.09;1664908;84;21173;-68
2022/07/15 00:34:35;;;;;;;7.67;3.17;;;;;;;21.66;66.03;98583.89;1665420;84;21448;-71
2022/07/15 00:37:02;;;;;;;7.33;3.30;;;;;;;21.65;66.28;98591.72;1664689;84;20931;-71
2022/07/15 00:39:29;;;;;;;7.33;3.10;;;;;;;21.68;66.26;98593.09;1665093;84;21078;-69
2022/07/15 00:41:55;;;;;;;3.83;3.17;;;;;;;21.74;66.21;98587.45;1665313;84;20986;-67
2022/07/15 00:44:22;;;;;;;3.85;3.08;;;;;;;21.74;65.84;98586.09;1665312;84;21157;-68
2022/07/15 00:46:49;;;;;;;6.97;3.35;;;;;;;21.74;65.84;98586.09;1664956;84;21006;-72
2022/07/15 00:49:16;;;;;;;3.37;3.05;;;;;;;21.74;66.68;98588.80;1664287;84;20884;-68
2022/07/15 00:51:47;;;;;;;4.72;3.25;;;;;;;21.74;66.68;98588.80;1661625;84;20865;-67
2022/07/15 00:54:15;;;;;;;3.50;3.20;;;;;;;21.74;66.43;98587.45;1663881;84;20899;-67
2022/07/15 00:56:46;;;;;;;5.67;3.30;;;;;;;21.70;66.58;98572.80;1665282;84;21191;-68
2022/07/15 00:59:13;;;;;;;4.20;3.40;;;;;;;21.74;66.67;98560.91;1665698;84;20875;-68
2022/07/15 01:01:41;;;;;;;5.45;2.75;;;;;;;21.77;66.72;98569.87;1664944;84;20950;-68
2022/07/15 01:04:08;;;;;;;3.75;2.87;;;;;;;21.77;66.72;98569.87;1665140;84;21078;-68
2022/07/15 01:06:34;;;;;;;3.55;2.87;;;;;;;21.78;66.59;98568.77;1675410;84;21487;-68
2022/07/15 01:09:03;;;;;;;3.80;2.92;;;;;;;21.81;66.52;98557.42;1684191;84;21513;-70
2022/07/15 01:11:30;;;;;;;6.47;3.05;;;;;;;21.84;66.47;98556.36;1683985;84;21077;-68
2022/07/15 01:13:59;;;;;;;3.45;3.15;;;;;;;21.88;66.26;98558.83;1684205;85;21018;-67
2022/07/15 01:16:26;;;;;;;3.42;2.80;;;;;;;21.94;66.29;98565.08;1658668;85;20999;-70
2022/07/15 01:18:54;;;;;;;6.47;3.08;;;;;;;21.95;66.29;98559.39;1682968;85;20967;-68
2022/07/15 01:21:22;;;;;;;3.12;2.83;;;;;;;21.95;66.73;98542.36;1683627;84;21201;-70
2022/07/15 01:23:51;;;;;;;5.87;2.77;;;;;;;21.95;66.73;98542.36;1681020;85;21002;-68
2022/07/15 01:26:28;;;;;;;4.37;3.20;;;;;;;21.91;66.83;98530.41;1683183;85;20958;-71
2022/07/15 01:28:56;;;;;;;5.65;3.45;;;;;;;21.78;67.14;98537.11;1683592;85;21522;-69
2022/07/15 01:31:23;;;;;;;3.70;2.87;;;;;;;21.75;67.26;98528.69;1681530;84;21039;-68
2022/07/15 01:33:53;;;;;;;4.50;2.95;;;;;;;21.75;67.26;98528.69;1684168;85;21240;-68
2022/07/15 01:36:21;;;;;;;5.28;3.02;;;;;;;21.68;68.32;98526.78;1684205;84;20998;-68
2022/07/15 01:38:49;;;;;;;7.78;3.02;;;;;;;21.68;68.32;98526.78;1683260;83;21484;-72
2022/07/15 01:41:16;;;;;;;4.78;3.20;;;;;;;21.61;68.43;98520.27;1683410;84;21002;-67
2022/07/15 01:43:43;;;;;;;5.87;3.30;;;;;;;21.58;68.55;98508.61;1684314;84;21018;-68
2022/07/15 01:46:09;;;;;;;7.37;3.27;;;;;;;21.53;68.51;98496.41;1658566;85;21366;-68
2022/07/15 01:51:27;;;;;;;4.50;3.17;;;;;;;21.46;68.44;98475.00;1674158;85;21034;-68
2022/07/15 01:53:54;;;;;;;3.27;2.85;;;;;;;21.43;68.49;98470.11;1673747;84;20955;-68
2022/07/15 01:56:21;;;;;;;4.62;3.12;;;;;;;21.43;68.48;98472.03;1684346;85;21014;-69
2022/07/15 01:58:49;;;;;;;4.40;2.95;;;;;;;21.45;68.44;98482.86;1683880;84;21014;-68
2022/07/15 02:01:17;;;;;;;3.17;2.80;;;;;;;21.50;68.15;98484.77;1683486;83;20890;-69
2022/07/15 02:03:45;;;;;;;3.65;3.02;;;;;;;21.58;68.27;98493.73;1677735;85;21454;-69
2022/07/15 02:06:12;;;;;;;5.97;3.50;;;;;;;21.58;68.27;98493.73;1660872;84;21015;-68
2022/07/15 02:08:38;;;;;;;4.80;3.58;;;;;;;21.63;68.01;98517.28;1693137;84;21540;-69
2022/07/15 02:11:07;;;;;;;4.85;3.17;;;;;;;21.70;68.27;98567.38;1692941;84;21163;-69
2022/07/15 02:13:35;;;;;;;3.50;3.20;;;;;;;21.70;68.27;98567.38;1693094;83;20952;-71
2022/07/15 02:16:02;;;;;;;7.08;3.85;;;;;;;21.70;68.67;98639.64;1693247;84;21531;-67
2022/07/15 02:18:29;;;;;;;4.00;3.00;;;;;;;21.70;68.99;98707.31;1692181;84;21074;-68
2022/07/15 02:20:56;;;;;;;6.62;3.80;;;;;;;21.67;68.98;98705.94;1692604;84;20895;-67
2022/07/15 02:23:23;;;;;;;6.37;3.08;;;;;;;21.44;70.72;98689.55;1693237;84;21146;-68
2022/07/15 02:25:50;;;;;;;4.28;2.12;;;;;;;21.05;72.09;98707.02;1691411;84;20994;-67
2022/07/15 02:28:18;;;;;;;4.08;2.83;;;;;;;20.63;71.04;98693.35;1693055;84;20971;-67
2022/07/15 02:30:46;;;;;;;4.55;2.60;;;;;;;20.30;70.63;98674.60;1692899;83;21532;-69
2022/07/15 02:33:13;;;;;;;3.47;2.50;;;;;;;20.05;69.78;98671.01;1693218;84;21417;-68
2022/07/15 02:35:40;;;;;;;5.90;2.20;;;;;;;19.81;69.59;98658.83;1691748;84;22087;-68
2022/07/15 02:38:08;;;;;;;3.60;2.30;;;;;;;19.60;69.77;98651.51;1692684;84;20997;-68
2022/07/15 02:40:35;;;;;;;3.33;1.85;;;;;;;19.37;70.09;98634.97;1692965;84;20915;-67
2022/07/15 02:43:03;;;;;;;3.22;2.22;;;;;;;19.21;70.61;98629.05;1692974;84;20924;-68
2022/07/15 02:45:33;;;;;;;1.80;1.70;;;;;;;19.09;70.92;98632.34;1693167;84;20967;-67
2022/07/15 02:48:02;;;;;;;2.37;2.10;;;;;;;18.96;71.28;98642.09;1665952;84;21235;-67
2022/07/15 02:50:31;;;;;;;3.62;2.20;;;;;;;18.81;71.82;98633.23;1692710;84;20921;-67
2022/07/15 02:52:59;;;;;;;2.60;2.00;;;;;;;18.67;72.35;98625.68;1688593;83;21006;-68
2022/07/15 02:55:26;;;;;;;1.75;1.60;;;;;;;18.59;72.94;98637.66;1671853;84;21441;-68
2022/07/15 02:57:53;;;;;;;1.80;1.70;;;;;;;18.55;73.28;98650.52;1692805;84;21400;-71
2022/07/15 03:00:20;;;;;;;4.10;2.33;;;;;;;18.46;73.60;98661.64;1693206;84;21456;-68
2022/07/15 03:02:49;;;;;;;2.50;2.30;;;;;;;18.43;74.21;98651.91;1693269;84;20899;-68
2022/07/15 03:05:17;;;;;;;2.75;2.30;;;;;;;18.48;74.67;98664.14;1666842;84;20965;-68
2022/07/15 03:07:44;;;;;;;2.60;2.33;;;;;;;18.54;74.69;98662.38;1699387;84;21006;-68
2022/07/15 03:10:11;;;;;;;5.08;2.60;;;;;;;18.56;74.47;98637.35;1700141;84;20942;-69
2022/07/15 03:12:38;;;;;;;2.50;2.30;;;;;;;18.57;74.46;98636.27;1707199;84;21164;-68
2022/07/15 03:15:07;;;;;;;6.42;2.22;;;;;;;18.56;74.37;98634.66;1707781;84;20955;-68
2022/07/15 03:17:35;;;;;;;7.22;2.90;;;;;;;18.55;74.52;98644.61;1707923;84;21011;-69
2022/07/15 03:20:05;;;;;;;5.65;2.00;;;;;;;18.54;74.56;98660.47;1696289;83;21551;-68
2022/07/15 03:22:32;;;;;;;2.87;2.00;;;;;;;18.58;74.85;98667.55;1662562;85;20948;-67
2022/07/15 03:24:59;;;;;;;2.77;1.90;;;;;;;18.64;75.09;98670.64;1700682;84;21163;-69
2022/07/15 03:27:26;;;;;;;2.37;2.17;;;;;;;18.64;75.06;98676.81;1703202;84;21566;-68
2022/07/15 03:29:53;;;;;;;2.30;1.92;;;;;;;18.62;74.66;98692.41;1700844;84;20855;-68
2022/07/15 03:32:20;;;;;;;3.72;1.85;;;;;;;18.56;74.58;98711.42;1703089;84;20927;-68
2022/07/15 03:34:48;;;;;;;3.55;1.90;;;;;;;18.52;74.57;98735.31;1706290;84;20978;-72
2022/07/15 03:37:17;;;;;;;2.15;1.95;;;;;;;18.44;74.71;98744.55;1704683;84;22135;-71
2022/07/15 03:39:44;;;;;;;3.20;2.20;;;;;;;18.40;75.12;98733.98;1703626;84;21564;-68
2022/07/15 03:42:10;;;;;;;2.58;2.00;;;;;;;18.40;75.58;98725.08;1707483;84;20982;-70
2022/07/15 03:44:39;;;;;;;2.62;2.00;;;;;;;18.40;75.70;98729.95;1704331;84;20923;-68
2022/07/15 03:47:05;;;;;;;2.00;1.90;;;;;;;18.42;75.61;98720.27;1702621;84;21069;-68
2022/07/15 03:49:32;;;;;;;2.12;1.90;;;;;;;18.39;75.14;98723.43;1701952;84;22214;-70
2022/07/15 03:51:58;;;;;;;3.05;2.00;;;;;;;18.33;74.66;98744.56;1699091;84;21100;-68
2022/07/15 03:54:27;;;;;;;2.50;2.10;;;;;;;18.24;74.62;98772.92;1695964;84;21045;-70
2022/07/15 03:56:56;;;;;;;11.60;10.13;;;;;;;18.16;75.26;98825.77;1700073;83;20927;-68
2022/07/15 03:59:23;;;;;;;9.33;7.33;;;;;;;18.07;76.16;98819.13;1706535;83;20931;-68
2022/07/15 04:01:50;;;;;;;6.10;3.10;;;;;;;18.02;76.88;98814.41;1697224;84;21159;-67
2022/07/15 04:04:19;;;;;;;4.92;2.60;;;;;;;17.98;76.86;98826.72;1699514;84;20930;-69
2022/07/15 04:06:46;;;;;;;4.12;2.10;;;;;;;17.95;76.97;98826.34;1703423;83;20931;-67
2022/07/15 04:09:12;;;;;;;11.68;2.42;;;;;;;17.93;77.29;98833.84;1696685;83;20942;-70
2022/07/15 04:11:42;;;;;;;4.70;3.27;;;;;;;17.88;77.24;98840.72;1696655;83;20947;-68
2022/07/15 04:14:12;;;;;;;6.22;3.45;;;;;;;17.83;77.45;98814.25;1692307;83;21168;-71
2022/07/15 04:16:41;;;;;;;6.28;4.12;;;;;;;17.82;77.79;98752.89;1696547;83;20938;-70
2022/07/15 04:19:10;;;;;;;4.50;3.37;;;;;;;17.81;78.30;98738.31;1698244;82;20987;-68
2022/07/15 04:21:36;;;;;;;7.22;3.72;;;;;;;17.83;78.25;98746.98;1696634;83;21054;-68
2022/07/15 04:24:05;;;;;;;5.60;3.58;;;;;;;17.82;78.25;98748.03;1696410;83;21077;-68
2022/07/15 04:26:31;;;;;;;5.30;3.35;;;;;;;17.82;78.41;98741.30;1696625;83;21853;-68
2022/07/15 04:28:58;;;;;;;10.58;9.08;;;;;;;17.87;78.41;98732.00;1696637;83;21533;-69
2022/07/15 04:31:25;;;;;;;7.83;6.25;;;;;;;17.90;78.39;98704.63;1695743;83;20971;-68
2022/07/15 04:33:53;;;;;;;6.50;4.08;;;;;;;17.90;78.12;98687.14;1694540;83;20926;-70
2022/07/15 04:36:20;;;;;;;7.35;4.15;;;;;;;17.82;77.94;98664.11;1696534;83;20918;-69
2022/07/15 04:38:47;;;;;;;2.75;2.55;;;;;;;17.76;77.91;98658.32;1696559;83;21257;-70
2022/07/15 04:41:14;;;;;;;5.70;2.50;;;;;;;17.69;77.87;98652.78;1696446;83;20906;-67
2022/07/15 04:43:41;;;;;;;2.75;1.77;;;;;;;17.64;77.92;98660.22;1696279;83;21018;-68
2022/07/15 04:46:09;;;;;;;3.00;2.12;;;;;;;17.62;77.81;98669.57;1696364;83;20917;-67
2022/07/15 04:51:21;;;;;;;1.90;1.80;;;;;;;17.59;78.24;98674.06;1697416;83;21308;-69
2022/07/15 04:53:48;;;;;;;2.12;1.98;;;;;;;17.68;78.57;98676.68;1696924;83;21025;-68
2022/07/15 04:56:16;;;;;;;4.92;1.82;;;;;;;17.88;78.68;98669.08;1696536;83;21041;-68
2022/07/15 04:58:43;;;;;;;2.30;1.62;;;;;;;18.09;78.08;98672.49;1696538;83;20915;-69
2022/07/15 05:01:10;;;;;;;3.02;1.70;;;;;;;18.25;77.51;98683.05;1696542;83;21112;-68
2022/07/15 05:03:37;;;;;;;2.58;1.67;;;;;;;18.33;76.86;98684.81;1695735;83;21156;-69
2022/07/15 05:06:05;;;;;;;2.42;1.80;;;;;;;18.40;76.76;98680.13;1704177;83;20954;-70
2022/07/15 05:08:33;;;;;;;2.10;1.70;;;;;;;18.45;76.28;98677.53;1696381;83;20990;-70
2022/07/15 05:11:01;;;;;;;3.90;1.70;;;;;;;18.55;76.24;98670.72;1696196;84;20989;-68
2022/07/15 05:13:28;;;;;;;1.50;1.40;;;;;;;18.70;75.57;98676.39;1694730;84;21124;-67
2022/07/15 05:15:57;;;;;;;1.87;1.52;;;;;;;18.83;75.20;98678.78;1695734;84;21157;-68
2022/07/15 05:18:26;;;;;;;3.67;1.72;;;;;;;19.14;74.82;98689.03;1695773;83;20926;-68
2022/07/15 05:20:54;;;;;;;3.62;2.65;;;;;;;19.57;73.45;98697.33;1693853;84;20986;-72
2022/07/15 05:23:22;;;;;;;3.10;2.20;;;;;;;19.76;71.87;98703.81;1694589;84;21439;-73
2022/07/15 05:25:50;;;;;;;2.20;1.82;;;;;;;19.85;70.19;98699.61;1694989;84;20986;-72
2022/07/15 05:28:19;;;;;;;1.80;1.57;;;;;;;19.94;69.74;98700.83;1696203;84;21134;-72
2022/07/15 05:30:47;;;;;;;5.33;2.62;;;;;;;19.97;68.87;98713.84;1695384;84;20914;-70
2022/07/15 05:33:17;;;;;;;1.95;1.52;;;;;;;19.97;68.52;98716.53;1695873;84;20918;-71
2022/07/15 05:35:44;;;;;;;1.80;1.70;;;;;;;20.15;67.56;98730.53;1694475;84;20966;-68
2022/07/15 05:38:12;;;;;;;1.62;1.52;;;;;;;20.40;67.36;98723.87;1685202;84;21040;-68
2022/07/15 05:40:40;;;;;;;1.70;1.50;;;;;;;20.57;66.48;98716.53;1693011;84;22070;-74
2022/07/15 05:43:07;;;;;;;7.20;6.42;;;;;;;20.49;65.37;98718.32;1681068;84;21056;-70
2022/07/15 05:45:35;;;;;;;3.15;2.87;;;;;;;20.35;65.89;98725.98;1694301;84;21037;-70
2022/07/15 05:48:05;;;;;;;2.52;2.33;;;;;;;20.37;66.82;98719.78;1686810;84;21061;-71
2022/07/15 05:50:34;;;;;;;3.08;1.52;;;;;;;20.46;66.30;98717.47;1695510;84;20906;-71
2022/07/15 05:53:01;;;;;;;1.92;1.70;;;;;;;20.75;65.33;98720.25;1669720;84;21129;-70
2022/07/15 05:55:28;;;;;;;1.50;1.30;;;;;;;21.72;64.41;98717.37;1693756;84;21045;-73
2022/07/15 05:57:55;;;;;;;4.90;1.57;;;;;;;23.19;59.80;98716.92;1695717;84;21002;-69
2022/07/15 06:00:24;;;;;;;1.35;1.27;;;;;;;24.03;56.74;98709.56;1686681;84;21499;-70
2022/07/15 06:02:51;;;;;;;1.12;1.02;;;;;;;25.25;55.55;98698.40;1694638;84;21474;-71
2022/07/15 06:05:22;;;;;;;1.75;1.57;;;;;;;26.60;50.90;98696.78;1695181;84;21260;-70
2022/07/15 06:07:51;;;;;;;1.27;1.17;;;;;;;27.80;48.05;98693.31;1689281;84;21062;-69
2022/07/15 06:10:19;;;;;;;1.50;1.40;;;;;;;28.25;44.10;98689.76;1683445;85;21067;-70
2022/07/15 06:12:46;;;;;;;1.30;1.20;;;;;;;28.08;43.97;98697.19;1682788;84;21078;-70
2022/07/15 06:15:12;;;;;;;1.47;1.37;;;;;;;28.44;43.37;98699.23;1682092;85;21031;-70
2022/07/15 06:17:40;;;;;;;1.12;1.02;;;;;;;28.58;42.52;98697.27;1682629;85;21077;-70
2022/07/15 06:20:09;;;;;;;4.80;3.37;;;;;;;28.34;41.64;98701.59;1682917;85;21026;-71
2022/07/15 06:22:36;;;;;;;1.92;1.75;;;;;;;27.64;41.06;98709.75;1682413;85;21507;-69
2022/07/15 06:25:05;;;;;;;1.72;1.30;;;;;;;26.93;42.44;98712.20;1683737;85;21129;-68
2022/07/15 06:27:32;;;;;;;1.45;1.25;;;;;;;26.71;43.53;98710.00;1683792;84;21073;-68
2022/07/15 06:29:59;;;;;;;2.10;1.50;;;;;;;26.48;43.87;98713.58;1682866;85;21206;-70
2022/07/15 06:32:26;;;;;;;2.27;1.60;;;;;;;26.21;43.97;98716.89;1682313;85;20946;-66
2022/07/15 06:34:53;;;;;;;5.75;1.15;;;;;;;25.91;44.81;98723.19;1684122;84;20943;-67
2022/07/15 06:37:21;;;;;;;1.30;1.20;;;;;;;25.94;45.95;98722.62;1684151;85;20963;-67
2022/07/15 06:39:48;;;;;;;1.05;0.95;;;;;;;26.07;45.03;98732.27;1684207;85;21078;-67
2022/07/15 06:42:16;;;;;;;1.15;1.05;;;;;;;26.78;44.44;98738.30;1683068;85;21070;-67
2022/07/15 06:44:44;;;;;;;0.93;0.93;;;;;;;28.61;41.24;98728.13;1683909;84;21603;-68
2022/07/15 06:47:13;;;;;;;8.55;1.80;;;;;;;30.53;38.02;98720.17;1684269;85;21038;-66
2022/07/15 06:49:39;;;;;;;5.92;1.70;;;;;;;32.36;35.17;98718.06;1683805;84;20975;-67
2022/07/15 06:52:07;;;;;;;1.47;1.37;;;;;;;33.91;32.64;98709.49;1679979;85;20927;-72
2022/07/15 06:54:33;;;;;;;1.20;1.10;;;;;;;35.39;30.90;98709.34;1684184;85;21216;-70
2022/07/15 06:57:05;;;;;;;1.22;1.12;;;;;;;36.71;28.87;98709.72;1680042;85;21022;-68
2022/07/15 06:59:30;;;;;;;1.35;1.00;;;;;;;36.55;26.42;98706.17;1684398;84;21491;-68
2022/07/15 07:01:56;;;;;;;1.22;1.00;;;;;;;35.66;26.74;98707.99;1684160;85;20919;-68
2022/07/15 07:04:23;;;;;;;1.00;0.90;;;;;;;35.62;26.25;98706.27;1675114;85;20984;-69
2022/07/15 07:06:50;;;;;;;3.40;0.90;;;;;;;36.36;26.17;98704.91;1679255;85;21165;-67
2022/07/15 07:09:17;;;;;;;0.95;0.88;;;;;;;37.30;24.83;98701.95;1694432;84;21105;-65
2022/07/15 07:11:44;;;;;;;1.00;0.90;;;;;;;38.19;23.59;98694.77;1696176;84;20971;-68
2022/07/15 07:14:11;;;;;;;1.60;1.02;;;;;;;38.99;22.20;98696.44;1696200;84;20937;-67
2022/07/15 07:16:41;;;;;;;1.02;0.93;;;;;;;39.45;21.38;98693.67;1696767;84;20894;-67
2022/07/15 07:19:07;;;;;;;0.72;0.72;;;;;;;39.94;21.12;98698.44;1696859;84;21158;-69
2022/07/15 07:21:35;;;;;;;1.12;0.65;;;;;;;40.44;20.84;98701.69;1696069;84;20993;-68
2022/07/15 07:24:03;;;;;;;0.80;0.80;;;;;;;41.10;20.09;98702.75;1696116;84;20970;-69
2022/07/15 07:26:29;;;;;;;0.60;0.60;;;;;;;41.58;19.18;98699.20;1696065;84;21547;-66
2022/07/15 07:28:57;;;;;;;1.50;0.78;;;;;;;41.93;17.79;98706.86;1696097;84;20879;-68
2022/07/15 07:31:26;;;;;;;1.67;1.05;;;;;;;41.92;17.90;98708.08;1696207;84;21141;-68
2022/07/15 07:33:57;;;;;;;0.85;0.80;;;;;;;42.11;18.04;98708.31;1696102;84;21045;-66
2022/07/15 07:36:25;;;;;;;2.45;0.88;;;;;;;42.19;18.16;98710.72;1696117;84;20966;-67
2022/07/15 07:38:51;;;;;;;0.93;0.85;;;;;;;42.28;18.31;98718.71;1695964;84;20941;-68
2022/07/15 07:41:18;;;;;;;1.00;0.70;;;;;;;42.68;17.41;98721.13;1696105;84;21053;-68
2022/07/15 07:43:44;;;;;;;0.88;0.88;;;;;;;42.93;17.10;98726.09;1696321;84;21248;-66
2022/07/15 07:46:12;;;;;;;1.30;0.80;;;;;;;43.10;16.91;98732.83;1696252;84;21065;-66
2022/07/15 07:48:39;;;;;;;0.85;0.85;;;;;;;43.18;16.79;98736.44;1696428;84;21065;-68
2022/07/15 07:51:07;;;;;;;0.93;0.82;;;;;;;43.13;16.88;98744.63;1696209;84;21567;-67
2022/07/15 07:53:33;;;;;;;2.55;0.85;;;;;;;43.30;16.73;98742.38;1691826;84;21443;-68
2022/07/15 07:56:00;;;;;;;1.12;1.00;;;;;;;43.43;16.46;98749.16;1696354;84;21248;-67
2022/07/15 07:58:26;;;;;;;1.00;0.90;;;;;;;43.53;16.46;98737.11;1696412;84;20863;-66
2022/07/15 08:00:55;;;;;;;1.82;0.80;;;;;;;43.73;16.34;98744.44;1696169;84;20882;-66
2022/07/15 08:03:21;;;;;;;1.62;0.80;;;;;;;43.99;16.03;98745.88;1696297;84;20985;-69
2022/07/15 08:05:48;;;;;;;1.20;1.10;;;;;;;44.23;16.48;98746.34;1696275;84;21033;-66
2022/07/15 08:08:17;;;;;;;1.42;1.20;;;;;;;44.53;15.72;98743.75;1697190;84;21278;-67
2022/07/15 08:10:48;;;;;;;1.17;1.10;;;;;;;44.56;15.59;98744.30;1699020;84;20952;-67
2022/07/15 08:13:16;;;;;;;1.32;1.15;;;;;;;44.36;15.43;98747.45;1699650;84;21010;-67
2022/07/15 08:15:43;;;;;;;0.90;0.90;;;;;;;44.35;15.82;98747.88;1696391;84;21007;-68
2022/07/15 08:18:09;;;;;;;1.10;1.00;;;;;;;44.47;15.56;98743.16;1695474;84;21568;-67
2022/07/15 08:20:36;;;;;;;4.30;1.15;;;;;;;44.30;15.41;98749.09;1689281;83;21492;-68
2022/07/15 08:23:04;;;;;;;1.40;0.90;;;;;;;43.92;15.50;98748.14;1693624;84;20948;-66
2022/07/15 08:25:36;;;;;;;3.22;1.82;;;;;;;43.35;15.83;98752.38;1689739;84;20947;-67
2022/07/15 08:28:05;;;;;;;3.60;1.40;;;;;;;42.51;16.43;98760.23;1697238;84;20917;-66
2022/07/15 08:30:33;;;;;;;1.25;0.85;;;;;;;42.24;16.97;98759.22;1697420;84;20979;-68
2022/07/15 08:33:01;;;;;;;2.12;1.45;;;;;;;42.39;16.97;98754.45;1698418;84;20948;-67
2022/07/15 08:35:28;;;;;;;3.17;1.20;;;;;;;42.20;17.12;98756.22;1698994;84;21015;-67
2022/07/15 08:37:55;;;;;;;1.07;0.90;;;;;;;41.55;17.64;98762.78;1698319;84;20960;-68
2022/07/15 08:40:23;;;;;;;1.40;1.00;;;;;;;41.35;17.90;98769.07;1692428;84;21013;-68
2022/07/15 08:42:51;;;;;;;1.57;1.22;;;;;;;40.97;18.21;98769.81;1692506;84;21583;-67
2022/07/15 08:45:17;;;;;;;2.10;1.30;;;;;;;39.61;19.60;98772.18;1696067;84;21222;-69
2022/07/15 08:47:49;;;;;;;1.60;1.10;;;;;;;38.48;20.79;98783.58;1694908;84;20962;-68
2022/07/15 08:50:17;;;;;;;1.85;1.12;;;;;;;37.90;21.64;98786.45;1697105;84;21033;-68
2022/07/15 08:52:46;;;;;;;1.02;0.90;;;;;;;38.19;21.61;98789.19;1692260;84;21519;-69
2022/07/15 08:55:15;;;;;;;3.05;1.05;;;;;;;37.84;21.73;98785.11;1698252;84;20975;-69
2022/07/15 08:57:49;;;;;;;2.00;1.30;;;;;;;37.39;22.13;98789.88;1697968;84;21148;-68
2022/07/15 09:00:17;;;;;;;5.40;1.20;;;;;;;37.69;22.13;98790.97;1685221;84;20958;-67
2022/07/15 09:02:44;;;;;;;1.10;1.00;;;;;;;38.33;21.74;98788.67;1697658;84;20982;-69
2022/07/15 09:05:33;;;;;;;1.10;1.10;;;;;;;39.46;20.82;98782.93;1696637;84;21477;-68
2022/07/15 09:08:11;;;;;;;1.05;1.00;;;;;;;40.62;19.79;98792.61;1698977;84;20944;-70
2022/07/15 09:11:00;;;;;;;1.30;1.20;;;;;;;41.66;18.39;98789.34;1703687;84;20951;-68
2022/07/15 09:13:38;;;;;;;1.40;1.30;;;;;;;41.85;17.87;98791.23;1704350;84;20876;-69
2022/07/15 09:16:08;;;;;;;1.35;1.25;;;;;;;40.40;18.74;98791.39;1694426;84;20934;-69
2022/07/15 09:18:41;;;;;;;;;;;;;;;38.74;20.50;98796.13;1703201;84;38021;-68
2022/07/15 09:21:26;;;;;;;3.40;1.00;;;;;;;37.83;22.03;98793.81;1659677;86;20637;-67
2022/07/15 09:23:53;;;;;;;1.25;1.10;;;;;;;38.00;21.87;98791.98;1659664;86;21160;-67
2022/07/15 09:26:38;;;;;;;1.85;1.20;;;;;;;37.26;22.29;98795.34;1659538;86;21580;-67
2022/07/15 09:33:34;;;;;;;1.27;1.15;;;;;;;36.95;23.04;98802.34;1659896;86;20966;-66
2022/07/15 09:34:24;;;;;;;1.30;1.20;;;;;;;36.94;22.99;98796.56;1659625;86;21496;-67
2022/07/15 09:36:57;;;;;;;1.17;0.90;;;;;;;35.62;24.35;98803.88;1659582;86;21264;-68
2022/07/15 09:39:24;;;;;;;1.50;1.40;;;;;;;35.20;24.93;98810.86;1656208;86;20951;-69
2022/07/15 09:41:51;;;;;;;2.02;1.30;;;;;;;34.41;25.99;98809.45;1666905;85;21507;-68
2022/07/15 09:44:21;;;;;;;1.00;0.90;;;;;;;33.85;27.34;98817.05;1643119;86;21562;-68
2022/07/15 09:47:00;;;;;;;0.98;0.85;;;;;;;33.41;27.19;98814.39;1628344;86;20995;-68
2022/07/15 09:49:34;;;;;;;1.22;1.12;;;;;;;32.82;27.93;98818.55;1664293;84;21285;-67
2022/07/15 09:52:10;;;;;;;1.12;1.00;;;;;;;32.33;28.64;98823.30;1661382;84;21022;-67
2022/07/15 09:54:45;;;;;;;1.45;1.00;;;;;;;32.00;29.05;98820.88;1663943;84;21123;-66
2022/07/15 09:57:16;;;;;;;0.93;0.93;;;;;;;31.89;29.66;98823.12;1631724;87;20963;-69
2022/07/15 09:59:46;;;;;;;0.93;0.90;;;;;;;31.76;29.62;98816.66;1671096;85;21056;-68
2022/07/15 10:02:14;;;;;;;1.27;0.90;;;;;;;31.55;29.48;98819.00;1656573;85;21265;-68
2022/07/15 10:04:42;;;;;;;2.72;1.10;;;;;;;31.27;29.96;98822.59;1670460;85;20995;-69
2022/07/15 10:07:10;;;;;;;1.65;0.80;;;;;;;31.05;30.71;98819.98;1629705;86;21015;-68
2022/07/15 10:09:37;;;;;;;1.25;1.00;;;;;;;30.93;31.08;98807.41;1675095;84;20983;-69
2022/07/15 10:12:21;;;;;;;7.00;0.90;;;;;;;30.79;31.72;98813.58;1635014;86;21548;-69
2022/07/15 10:15:06;;;;;;;2.95;1.00;;;;;;;30.67;31.93;98816.91;1642689;87;21162;-69
2022/07/15 10:18:09;;;;;;;3.22;1.27;;;;;;;30.55;31.56;98813.41;1636114;87;20938;-67
2022/07/15 10:20:47;;;;;;;2.00;1.10;;;;;;;30.41;30.99;98806.39;1643172;87;20922;-67
2022/07/15 10:23:43;;;;;;;2.75;0.98;;;;;;;30.39;31.11;98811.39;1634284;87;20985;-68
2022/07/15 10:26:29;;;;;;;0.98;0.80;;;;;;;30.29;31.81;98814.38;1642930;87;21032;-68
2022/07/15 10:29:00;;;;;;;0.90;0.90;;;;;;;30.18;32.10;98811.09;1641813;87;21124;-67
2022/07/15 10:31:29;;;;;;;1.75;1.15;;;;;;;30.05;32.34;98807.05;1642728;87;20902;-68
2022/07/15 10:34:15;;;;;;;1.32;1.20;;;;;;;29.97;32.50;98804.50;1642591;87;20923;-67
2022/07/15 10:36:53;;;;;;;0.80;0.80;;;;;;;29.98;32.51;98798.46;1642913;87;21521;-68
2022/07/15 10:39:22;;;;;;;1.45;1.02;;;;;;;30.11;32.30;98802.50;1642619;87;20990;-66
2022/07/15 10:42:02;;;;;;;0.90;0.90;;;;;;;30.14;31.94;98799.11;1642573;87;21156;-70
2022/07/15 10:44:34;;;;;;;1.72;1.35;;;;;;;30.12;31.88;98795.06;1642792;87;21535;-66
2022/07/15 10:47:17;;;;;;;1.55;1.00;;;;;;;30.17;31.65;98795.74;1642896;87;21008;-68
2022/07/15 10:49:47;;;;;;;1.10;1.00;;;;;;;30.11;31.90;98799.77;1642902;86;20934;-67
2022/07/15 10:52:26;;;;;;;3.02;1.20;;;;;;;30.02;32.20;98804.37;1641882;87;21641;-69
2022/07/15 10:55:00;;;;;;;2.10;1.05;;;;;;;29.95;33.09;98809.50;1642723;87;21172;-68
2022/07/15 10:57:52;;;;;;;1.57;1.00;;;;;;;29.83;33.55;98802.38;1624831;87;20945;-68
2022/07/15 11:00:33;;;;;;;3.90;0.98;;;;;;;29.62;33.02;98802.62;1642809;87;20922;-67
2022/07/15 11:03:14;;;;;;;2.22;1.20;;;;;;;29.26;33.34;98800.69;1642810;86;21003;-68
2022/07/15 11:05:56;;;;;;;1.15;1.10;;;;;;;28.98;34.32;98808.67;1641236;87;20940;-66
2022/07/15 11:08:40;;;;;;;2.90;1.22;;;;;;;28.64;34.89;98804.98;1642778;87;20956;-67
2022/07/15 11:11:22;;;;;;;1.17;1.07;;;;;;;28.48;35.64;98799.52;1642772;86;20937;-68
2022/07/15 11:13:50;;;;;;;2.22;1.30;;;;;;;28.49;35.94;98791.58;1642840;87;20973;-65
2022/07/15 11:16:20;;;;;;;2.08;1.10;;;;;;;28.36;36.18;98796.48;1642965;87;20972;-66
2022/07/15 11:18:52;;;;;;;3.30;1.70;;;;;;;28.41;36.64;98803.77;1643027;87;20984;-69
2022/07/15 11:21:20;;;;;;;2.08;1.70;;;;;;;28.56;37.05;98808.95;1643059;87;21114;-66
2022/07/15 11:23:49;;;;;;;1.77;1.50;;;;;;;28.76;37.46;98810.75;1642406;87;20945;-67
2022/07/15 11:26:17;;;;;;;1.30;1.20;;;;;;;28.94;37.01;98808.23;1643874;87;20933;-67
2022/07/15 11:28:54;;;;;;;1.87;1.50;;;;;;;28.97;36.46;98808.41;1643688;87;21491;-68
2022/07/15 11:31:22;;;;;;;1.85;1.25;;;;;;;28.90;36.42;98807.20;1643016;87;21001;-68
2022/07/15 11:33:54;;;;;;;3.40;1.20;;;;;;;28.74;36.13;98817.09;1642952;87;21183;-66
2022/07/15 11:36:22;;;;;;;3.60;1.70;;;;;;;28.52;36.25;98821.63;1642836;87;21018;-69
2022/07/15 11:38:49;;;;;;;1.87;1.47;;;;;;;28.29;37.18;98824.77;1642936;86;20973;-68
2022/07/15 11:46:52;;;;;;;1.40;1.30;;;;;;;28.06;37.66;98825.17;1643273;87;21487;-67
2022/07/15 11:49:39;;;;;;;1.50;1.20;;;;;;;28.18;38.00;98831.55;1642903;86;21043;-68
2022/07/15 11:52:09;;;;;;;1.82;1.07;;;;;;;28.34;37.87;98840.30;1642906;87;21432;-67
2022/07/15 11:54:38;;;;;;;1.72;1.35;;;;;;;28.49;37.68;98833.98;1642854;87;21504;-66
2022/07/15 11:57:09;;;;;;;3.30;1.20;;;;;;;28.53;37.87;98842.37;1643040;86;20961;-69
2022/07/15 11:59:36;;;;;;;1.55;1.10;;;;;;;28.61;37.85;98839.80;1639094;87;21133;-67
2022/07/15 12:02:09;;;;;;;1.10;1.07;;;;;;;28.65;37.63;98840.80;1661668;84;21073;-69